createdAt,value
2022-11-30T00:00:43.991Z,15.10
2022-11-30T00:01:46.879Z,24.75
2022-11-30T00:02:48.781Z,24.10
2022-11-30T00:03:53.364Z,15.65
2022-11-30T00:04:54.864Z,9.82
2022-11-30T00:05:56.362Z,21.25
2022-11-30T00:06:57.874Z,11.45
2022-11-30T00:08:00.837Z,7.68
2022-11-30T00:09:02.450Z,16.85
2022-11-30T00:10:06.015Z,21.08
2022-11-30T00:11:08.960Z,18.83
2022-11-30T00:12:10.499Z,18.65
2022-11-30T00:13:12.085Z,9.77
2022-11-30T00:14:13.573Z,10.65
2022-11-30T00:15:16.179Z,11.13
2022-11-30T00:16:17.818Z,12.32
2022-11-30T00:17:20.749Z,13.65
2022-11-30T00:18:22.233Z,14.75
2022-11-30T00:19:23.799Z,14.20
2022-11-30T00:20:26.497Z,20.08
2022-11-30T00:21:28.062Z,28.85
2022-11-30T00:22:29.599Z,34.28
2022-11-30T00:23:34.461Z,22.65
2022-11-30T00:24:36.004Z,17.48
2022-11-30T00:25:37.579Z,21.75
2022-11-30T00:26:39.140Z,16.73
2022-11-30T00:27:40.778Z,11.20
2022-11-30T00:28:43.109Z,24.00
2022-11-30T00:29:44.677Z,21.17
2022-11-30T00:30:46.188Z,29.77
2022-11-30T00:31:47.710Z,26.85
2022-11-30T00:32:50.579Z,22.02
2022-11-30T00:33:52.186Z,31.05
2022-11-30T00:34:54.020Z,21.75
2022-11-30T00:35:56.865Z,22.33
2022-11-30T00:36:58.391Z,19.98
2022-11-30T00:38:01.895Z,31.48
2022-11-30T00:39:03.468Z,30.83
2022-11-30T00:40:06.597Z,15.23
2022-11-30T00:41:08.201Z,18.48
2022-11-30T00:42:09.912Z,16.05
2022-11-30T00:43:11.388Z,29.00
2022-11-30T00:44:12.936Z,18.33
2022-11-30T00:45:14.535Z,11.52
2022-11-30T00:46:16.145Z,10.57
2022-11-30T00:47:17.669Z,11.65
2022-11-30T00:48:20.754Z,13.57
2022-11-30T00:49:22.250Z,6.25
2022-11-30T00:50:23.763Z,10.43
2022-11-30T00:51:25.338Z,16.17
2022-11-30T00:52:32.546Z,7.47
2022-11-30T00:53:34.435Z,6.85
2022-11-30T00:54:35.936Z,5.72
2022-11-30T00:55:37.495Z,8.50
2022-11-30T00:56:39.073Z,9.40
2022-11-30T00:57:40.608Z,16.27
2022-11-30T00:58:42.128Z,19.42
2022-11-30T00:59:43.667Z,18.80
2022-11-30T01:00:45.522Z,15.95
2022-11-30T01:01:47.075Z,20.70
2022-11-30T01:02:53.877Z,19.88
2022-11-30T01:03:56.777Z,16.23
2022-11-30T01:04:58.326Z,23.58
2022-11-30T01:06:02.256Z,21.05
2022-11-30T01:07:04.004Z,12.35
2022-11-30T01:08:08.583Z,15.63
2022-11-30T01:09:10.114Z,16.42
2022-11-30T01:10:11.707Z,20.38
2022-11-30T01:11:16.547Z,23.65
2022-11-30T01:12:18.087Z,31.92
2022-11-30T01:13:19.650Z,30.27
2022-11-30T01:14:21.306Z,31.70
2022-11-30T01:15:23.698Z,38.60
2022-11-30T01:16:27.543Z,43.08
2022-11-30T01:17:29.091Z,44.25
2022-11-30T01:18:30.599Z,41.75
2022-11-30T01:19:33.481Z,33.00
2022-11-30T01:20:35.295Z,42.97
2022-11-30T01:21:36.811Z,33.20
2022-11-30T01:22:38.473Z,39.47
2022-11-30T01:23:40.954Z,27.65
2022-11-30T01:24:42.475Z,26.25
2022-11-30T01:25:53.564Z,26.40
2022-11-30T01:26:55.098Z,32.22
2022-11-30T01:27:56.616Z,32.90
2022-11-30T01:28:58.202Z,29.90
2022-11-30T01:29:59.745Z,29.58
2022-11-30T01:31:03.754Z,31.55
2022-11-30T01:32:05.934Z,31.40
2022-11-30T01:33:07.479Z,35.80
2022-11-30T01:34:08.979Z,34.03
2022-11-30T01:35:11.904Z,36.65
2022-11-30T01:36:14.940Z,38.22
2022-11-30T01:37:16.469Z,39.35
2022-11-30T01:38:18.011Z,30.77
2022-11-30T01:39:19.567Z,30.50
2022-11-30T01:40:21.125Z,33.40
2022-11-30T01:41:25.023Z,36.25
2022-11-30T01:42:26.883Z,41.45
2022-11-30T01:43:41.440Z,46.95
2022-11-30T01:44:55.023Z,42.08
2022-11-30T01:45:57.367Z,41.15
2022-11-30T01:47:03.081Z,43.67
2022-11-30T01:48:07.411Z,40.50
2022-11-30T01:49:15.987Z,45.08
2022-11-30T01:50:23.735Z,46.15
2022-11-30T01:51:29.535Z,45.90
2022-11-30T01:52:35.523Z,55.25
2022-11-30T01:53:37.078Z,48.35
2022-11-30T01:54:43.078Z,45.85
2022-11-30T01:55:47.449Z,58.83
2022-11-30T01:56:52.199Z,55.13
2022-11-30T01:57:58.055Z,44.17
2022-11-30T01:59:00.206Z,56.70
2022-11-30T02:00:06.605Z,70.70
2022-11-30T02:01:08.137Z,58.45
2022-11-30T02:02:09.827Z,52.25
2022-11-30T02:03:30.105Z,37.30
2022-11-30T02:04:34.170Z,47.15
2022-11-30T02:05:39.399Z,45.60
2022-11-30T02:06:41.693Z,54.20
2022-11-30T02:07:43.633Z,56.72
2022-11-30T02:08:46.143Z,51.63
2022-11-30T02:09:47.726Z,55.22
2022-11-30T02:10:53.358Z,60.70
2022-11-30T02:11:56.651Z,58.88
2022-11-30T02:13:32.116Z,50.28
2022-11-30T02:14:38.217Z,54.25
2022-11-30T02:15:49.039Z,44.35
2022-11-30T02:17:00.694Z,45.38
2022-11-30T02:18:09.142Z,39.00
2022-11-30T02:19:33.717Z,48.85
2022-11-30T02:20:55.571Z,38.20
2022-11-30T02:22:04.089Z,41.65
2022-11-30T02:23:29.157Z,39.03
2022-11-30T02:24:54.398Z,39.78
2022-11-30T02:26:04.356Z,31.92
2022-11-30T02:27:26.612Z,37.05
2022-11-30T02:29:04.085Z,39.80
2022-11-30T02:30:09.756Z,31.23
2022-11-30T02:31:15.024Z,47.70
2022-11-30T02:32:20.491Z,40.63
2022-11-30T02:33:25.294Z,40.63
2022-11-30T02:34:30.235Z,44.70
2022-11-30T02:35:35.071Z,35.22
2022-11-30T02:36:40.298Z,27.58
2022-11-30T02:37:43.009Z,25.85
2022-11-30T02:38:44.593Z,29.35
2022-11-30T02:39:46.130Z,29.35
2022-11-30T02:40:47.842Z,30.60
2022-11-30T02:41:49.581Z,30.33
2022-11-30T02:42:53.900Z,32.28
2022-11-30T02:43:55.459Z,38.15
2022-11-30T02:44:58.395Z,56.90
2022-11-30T02:46:08.518Z,40.03
2022-11-30T02:47:22.179Z,36.13
2022-11-30T02:48:29.966Z,49.03
2022-11-30T02:49:36.949Z,51.05
2022-11-30T02:50:44.279Z,57.40
2022-11-30T02:51:48.233Z,33.63
2022-11-30T02:52:50.351Z,31.88
2022-11-30T02:53:52.767Z,30.17
2022-11-30T02:54:59.335Z,31.95
2022-11-30T02:56:00.832Z,37.08
2022-11-30T02:57:02.380Z,31.77
2022-11-30T02:58:03.932Z,31.95
2022-11-30T02:59:05.510Z,33.70
2022-11-30T03:00:10.409Z,32.78
2022-11-30T03:01:12.021Z,34.78
2022-11-30T03:02:13.546Z,33.85
2022-11-30T03:03:15.065Z,32.20
2022-11-30T03:04:16.619Z,34.90
2022-11-30T03:05:18.266Z,30.40
2022-11-30T03:06:19.812Z,29.65
2022-11-30T03:07:21.471Z,28.15
2022-11-30T03:08:23.143Z,29.38
2022-11-30T03:09:24.731Z,30.08
2022-11-30T03:10:26.294Z,30.02
2022-11-30T03:11:27.826Z,28.88
2022-11-30T03:12:29.502Z,28.83
2022-11-30T03:13:31.088Z,29.92
2022-11-30T03:14:32.638Z,27.33
2022-11-30T03:15:35.941Z,26.17
2022-11-30T03:16:37.546Z,28.58
2022-11-30T03:17:39.061Z,27.85
2022-11-30T03:18:40.871Z,28.17
2022-11-30T03:19:42.355Z,26.70
2022-11-30T03:20:43.914Z,27.80
2022-11-30T03:21:45.431Z,27.17
2022-11-30T03:22:46.972Z,26.83
2022-11-30T03:23:48.511Z,29.17
2022-11-30T03:24:50.389Z,28.33
2022-11-30T03:25:52.063Z,28.30
2022-11-30T03:26:53.603Z,25.70
2022-11-30T03:27:55.285Z,28.90
2022-11-30T03:29:16.887Z,23.50
2022-11-30T03:30:18.735Z,21.80
2022-11-30T03:31:21.610Z,27.80
2022-11-30T03:32:23.232Z,28.95
2022-11-30T03:33:25.205Z,28.17
2022-11-30T03:34:26.701Z,28.27
2022-11-30T03:35:28.234Z,28.20
2022-11-30T03:36:29.735Z,27.55
2022-11-30T03:37:31.236Z,30.20
2022-11-30T03:38:33.381Z,30.35
2022-11-30T03:39:34.925Z,32.25
2022-11-30T03:40:37.138Z,31.80
2022-11-30T03:41:38.676Z,29.67
2022-11-30T03:42:40.202Z,33.83
2022-11-30T03:43:42.116Z,39.92
2022-11-30T03:44:43.643Z,34.90
2022-11-30T03:45:45.233Z,53.47
2022-11-30T03:46:48.209Z,33.75
2022-11-30T03:47:49.762Z,33.83
2022-11-30T03:48:57.468Z,32.80
2022-11-30T03:49:59.010Z,32.45
2022-11-30T03:51:00.518Z,33.55
2022-11-30T03:52:03.137Z,35.55
2022-11-30T03:53:04.646Z,34.90
2022-11-30T03:54:06.221Z,34.33
2022-11-30T03:55:08.458Z,29.52
2022-11-30T03:56:11.591Z,31.15
2022-11-30T03:57:13.135Z,30.33
2022-11-30T03:58:14.626Z,29.73
2022-11-30T03:59:16.167Z,29.27
2022-11-30T04:00:19.234Z,30.60
2022-11-30T04:01:22.042Z,28.90
2022-11-30T04:02:25.008Z,28.30
2022-11-30T04:03:26.782Z,30.48
2022-11-30T04:04:28.329Z,29.08
2022-11-30T04:05:29.864Z,29.10
2022-11-30T04:06:31.395Z,27.80
2022-11-30T04:07:32.972Z,30.35
2022-11-30T04:08:35.536Z,26.73
2022-11-30T04:09:37.057Z,28.90
2022-11-30T04:10:38.598Z,28.17
2022-11-30T04:11:40.142Z,26.80
2022-11-30T04:12:41.698Z,26.15
2022-11-30T04:13:43.397Z,27.95
2022-11-30T04:14:45.149Z,27.33
2022-11-30T04:15:48.035Z,27.85
2022-11-30T04:16:49.612Z,27.02
2022-11-30T04:17:52.491Z,29.45
2022-11-30T04:18:53.992Z,25.65
2022-11-30T04:19:55.496Z,27.60
2022-11-30T04:20:58.597Z,26.40
2022-11-30T04:22:00.135Z,25.55
2022-11-30T04:23:01.664Z,26.08
2022-11-30T04:24:03.567Z,27.73
2022-11-30T04:25:06.011Z,26.40
2022-11-30T04:26:10.818Z,27.85
2022-11-30T04:27:12.330Z,28.45
2022-11-30T04:28:14.900Z,27.85
2022-11-30T04:29:16.450Z,26.70
2022-11-30T04:30:17.999Z,27.35
2022-11-30T04:31:19.539Z,26.95
2022-11-30T04:32:21.066Z,27.83
2022-11-30T04:33:23.908Z,27.30
2022-11-30T04:34:25.446Z,28.55
2022-11-30T04:35:27.013Z,26.33
2022-11-30T04:36:28.551Z,27.05
2022-11-30T04:37:30.102Z,26.55
2022-11-30T04:38:32.474Z,27.98
2022-11-30T04:39:34.170Z,27.42
2022-11-30T04:40:39.688Z,26.55
2022-11-30T04:41:41.222Z,25.08
2022-11-30T04:42:43.013Z,26.42
2022-11-30T04:43:44.556Z,26.73
2022-11-30T04:44:46.532Z,25.50
2022-11-30T04:45:48.364Z,26.85
2022-11-30T04:46:49.879Z,25.10
2022-11-30T04:47:51.371Z,25.52
2022-11-30T04:48:54.205Z,26.63
2022-11-30T04:49:55.807Z,25.88
2022-11-30T04:51:00.869Z,26.08
2022-11-30T04:52:02.423Z,26.77
2022-11-30T04:53:04.015Z,26.58
2022-11-30T04:54:05.670Z,28.23
2022-11-30T04:55:08.050Z,26.65
2022-11-30T04:56:11.019Z,28.02
2022-11-30T04:57:12.571Z,26.83
2022-11-30T04:58:14.063Z,28.58
2022-11-30T04:59:15.605Z,28.58
2022-11-30T05:00:18.893Z,28.23
2022-11-30T05:01:20.465Z,26.42
2022-11-30T05:02:22.025Z,29.38
2022-11-30T05:03:23.575Z,29.02
2022-11-30T05:04:26.504Z,30.60
2022-11-30T05:05:28.251Z,32.67
2022-11-30T05:06:29.747Z,34.72
2022-11-30T05:07:31.347Z,39.35
2022-11-30T05:08:32.893Z,31.35
2022-11-30T05:09:34.540Z,38.55
2022-11-30T05:10:36.104Z,36.47
2022-11-30T05:11:37.632Z,34.53
2022-11-30T05:12:39.132Z,31.40
2022-11-30T05:13:40.630Z,30.60
2022-11-30T05:14:42.184Z,29.95
2022-11-30T05:15:43.680Z,31.02
2022-11-30T05:16:47.106Z,32.53
2022-11-30T05:17:48.597Z,32.38
2022-11-30T05:18:51.054Z,31.60
2022-11-30T05:19:54.007Z,31.33
2022-11-30T05:20:55.503Z,28.48
2022-11-30T05:21:57.050Z,26.25
2022-11-30T05:22:58.713Z,29.15
2022-11-30T05:24:00.405Z,34.17
2022-11-30T05:25:02.143Z,36.03
2022-11-30T05:26:04.403Z,34.80
2022-11-30T05:27:16.585Z,30.67
2022-11-30T05:28:20.980Z,30.38
2022-11-30T05:29:22.480Z,32.25
2022-11-30T05:30:23.955Z,29.02
2022-11-30T05:31:25.470Z,31.08
2022-11-30T05:32:27.073Z,30.98
2022-11-30T05:33:28.599Z,31.13
2022-11-30T05:34:30.198Z,28.08
2022-11-30T05:35:33.243Z,28.80
2022-11-30T05:36:34.798Z,28.35
2022-11-30T05:37:36.292Z,33.13
2022-11-30T05:38:37.904Z,32.20
2022-11-30T05:39:39.444Z,34.88
2022-11-30T05:40:40.947Z,28.60
2022-11-30T05:41:42.503Z,33.25
2022-11-30T05:42:44.005Z,38.30
2022-11-30T05:43:45.517Z,39.90
2022-11-30T05:44:47.385Z,35.40
2022-11-30T05:45:49.104Z,57.60
2022-11-30T05:46:50.649Z,51.10
2022-11-30T05:47:52.307Z,38.00
2022-11-30T05:48:53.823Z,32.08
2022-11-30T05:49:55.374Z,30.13
2022-11-30T05:51:04.797Z,46.50
2022-11-30T05:52:06.353Z,44.35
2022-11-30T05:53:07.894Z,54.83
2022-11-30T05:54:09.451Z,53.95
2022-11-30T05:55:11.211Z,52.05
2022-11-30T05:56:14.813Z,54.10
2022-11-30T05:57:16.365Z,60.63
2022-11-30T05:58:17.876Z,53.17
2022-11-30T05:59:19.368Z,38.67
2022-11-30T06:00:27.101Z,45.65
2022-11-30T06:01:29.239Z,34.35
2022-11-30T06:02:30.825Z,38.88
2022-11-30T06:03:34.431Z,34.47
2022-11-30T06:04:35.966Z,31.13
2022-11-30T06:05:37.625Z,29.27
2022-11-30T06:06:40.477Z,29.10
2022-11-30T06:07:42.054Z,28.98
2022-11-30T06:08:44.656Z,28.90
2022-11-30T06:09:46.374Z,29.02
2022-11-30T06:10:48.676Z,33.50
2022-11-30T06:11:51.257Z,39.65
2022-11-30T06:12:53.469Z,42.75
2022-11-30T06:13:55.859Z,34.10
2022-11-30T06:14:57.629Z,24.98
2022-11-30T06:15:59.981Z,27.20
2022-11-30T06:17:01.708Z,31.15
2022-11-30T06:18:03.764Z,29.08
2022-11-30T06:19:05.456Z,28.40
2022-11-30T06:20:08.188Z,33.25
2022-11-30T06:21:11.343Z,35.88
2022-11-30T06:22:14.253Z,45.55
2022-11-30T06:23:15.844Z,45.40
2022-11-30T06:24:17.385Z,45.00
2022-11-30T06:25:19.000Z,50.33
2022-11-30T06:26:20.530Z,44.50
2022-11-30T06:27:22.296Z,52.38
2022-11-30T06:28:23.919Z,53.42
2022-11-30T06:29:25.460Z,57.60
2022-11-30T06:30:26.986Z,62.03
2022-11-30T06:31:30.301Z,45.15
2022-11-30T06:32:31.845Z,42.70
2022-11-30T06:33:33.959Z,39.55
2022-11-30T06:34:35.528Z,44.92
2022-11-30T06:35:37.049Z,30.77
2022-11-30T06:36:38.579Z,32.85
2022-11-30T06:37:41.751Z,32.15
2022-11-30T06:38:43.254Z,34.72
2022-11-30T06:40:05.460Z,29.83
2022-11-30T06:41:09.063Z,25.48
2022-11-30T06:42:10.753Z,28.85
2022-11-30T06:43:12.287Z,34.83
2022-11-30T06:44:13.825Z,26.83
2022-11-30T06:45:15.458Z,23.42
2022-11-30T06:46:17.051Z,27.90
2022-11-30T06:47:18.597Z,28.35
2022-11-30T06:48:20.189Z,30.13
2022-11-30T06:49:21.709Z,19.77
2022-11-30T06:50:23.505Z,27.88
2022-11-30T06:51:25.037Z,31.60
2022-11-30T06:52:26.550Z,28.52
2022-11-30T06:53:29.433Z,28.02
2022-11-30T06:54:39.862Z,27.08
2022-11-30T06:55:41.344Z,30.02
2022-11-30T06:56:42.853Z,24.75
2022-11-30T06:57:44.398Z,31.60
2022-11-30T06:58:45.953Z,35.85
2022-11-30T06:59:47.505Z,28.65
2022-11-30T07:00:49.186Z,30.58
2022-11-30T07:01:52.017Z,37.63
2022-11-30T07:02:53.985Z,40.50
2022-11-30T07:03:55.818Z,53.85
2022-11-30T07:04:57.919Z,41.80
2022-11-30T07:06:00.354Z,32.00
2022-11-30T07:07:01.894Z,31.52
2022-11-30T07:08:03.915Z,31.23
2022-11-30T07:09:07.009Z,33.15
2022-11-30T07:10:09.524Z,30.70
2022-11-30T07:11:12.328Z,17.48
2022-11-30T07:12:13.856Z,30.00
2022-11-30T07:13:18.277Z,24.35
2022-11-30T07:14:19.933Z,23.27
2022-11-30T07:15:21.587Z,21.02
2022-11-30T07:16:23.129Z,29.40
2022-11-30T07:17:24.668Z,29.33
2022-11-30T07:18:31.696Z,36.22
2022-11-30T07:19:34.366Z,29.58
2022-11-30T07:20:36.735Z,31.83
2022-11-30T07:21:38.270Z,31.40
2022-11-30T07:22:40.943Z,41.10
2022-11-30T07:23:42.509Z,26.13
2022-11-30T07:24:45.658Z,22.65
2022-11-30T07:25:48.550Z,34.03
2022-11-30T07:26:50.085Z,41.88
2022-11-30T07:27:51.625Z,36.08
2022-11-30T07:28:54.214Z,28.95
2022-11-30T07:29:55.851Z,39.30
2022-11-30T07:30:57.381Z,38.08
2022-11-30T07:31:58.938Z,32.65
2022-11-30T07:33:00.687Z,37.28
2022-11-30T07:34:05.149Z,25.88
2022-11-30T07:35:07.127Z,34.92
2022-11-30T07:36:09.175Z,33.25
2022-11-30T07:37:10.739Z,33.50
2022-11-30T07:38:12.243Z,36.13
2022-11-30T07:39:14.516Z,32.25
2022-11-30T07:40:17.487Z,29.63
2022-11-30T07:41:19.169Z,30.63
2022-11-30T07:42:20.708Z,32.80
2022-11-30T07:43:22.244Z,28.48
2022-11-30T07:44:23.766Z,27.33
2022-11-30T07:45:25.293Z,24.40
2022-11-30T07:46:26.832Z,27.05
2022-11-30T07:47:28.380Z,25.48
2022-11-30T07:48:30.459Z,25.25
2022-11-30T07:49:31.982Z,31.75
2022-11-30T07:50:33.510Z,33.88
2022-11-30T07:51:35.507Z,36.05
2022-11-30T07:52:37.039Z,31.77
2022-11-30T07:53:38.653Z,32.42
2022-11-30T07:54:40.182Z,26.60
2022-11-30T07:55:43.480Z,27.33
2022-11-30T07:56:44.995Z,33.38
2022-11-30T07:57:46.513Z,23.45
2022-11-30T07:58:48.892Z,38.75
2022-11-30T07:59:50.520Z,46.00
2022-11-30T08:00:52.218Z,46.58
2022-11-30T08:01:53.900Z,42.63
2022-11-30T08:02:55.558Z,45.53
2022-11-30T08:03:58.119Z,49.88
2022-11-30T08:04:59.712Z,44.13
2022-11-30T08:06:01.968Z,54.15
2022-11-30T08:07:03.486Z,49.92
2022-11-30T08:08:05.135Z,51.00
2022-11-30T08:09:06.697Z,39.30
2022-11-30T08:10:09.506Z,52.35
2022-11-30T08:11:14.965Z,34.20
2022-11-30T08:12:16.525Z,50.78
2022-11-30T08:13:18.054Z,33.03
2022-11-30T08:14:19.634Z,37.97
2022-11-30T08:15:22.371Z,32.45
2022-11-30T08:16:27.431Z,37.40
2022-11-30T08:17:28.967Z,30.30
2022-11-30T08:18:30.526Z,31.17
2022-11-30T08:19:32.019Z,35.35
2022-11-30T08:20:33.531Z,38.97
2022-11-30T08:21:35.125Z,27.95
2022-11-30T08:22:36.639Z,28.88
2022-11-30T08:23:39.921Z,26.85
2022-11-30T08:24:41.468Z,26.77
2022-11-30T08:25:42.955Z,28.35
2022-11-30T08:26:45.819Z,26.90
2022-11-30T08:27:47.329Z,28.77
2022-11-30T08:28:50.088Z,24.92
2022-11-30T08:29:51.796Z,25.88
2022-11-30T08:30:53.349Z,22.42
2022-11-30T08:31:54.925Z,25.45
2022-11-30T08:32:57.064Z,28.08
2022-11-30T08:34:00.334Z,23.48
2022-11-30T08:35:01.850Z,24.40
2022-11-30T08:36:07.914Z,26.15
2022-11-30T08:37:09.638Z,21.48
2022-11-30T08:38:11.169Z,25.15
2022-11-30T08:39:13.557Z,22.77
2022-11-30T08:40:15.337Z,23.80
2022-11-30T08:41:21.124Z,25.40
2022-11-30T08:42:23.987Z,22.85
2022-11-30T08:43:25.508Z,21.23
2022-11-30T08:44:28.470Z,22.83
2022-11-30T08:45:29.992Z,20.60
2022-11-30T08:46:52.097Z,20.95
2022-11-30T08:47:54.749Z,20.65
2022-11-30T08:49:12.907Z,22.95
2022-11-30T08:50:18.076Z,22.50
2022-11-30T08:51:20.851Z,23.17
2022-11-30T08:52:22.474Z,25.27
2022-11-30T08:53:23.994Z,23.67
2022-11-30T08:54:25.526Z,22.95
2022-11-30T08:55:27.134Z,22.75
2022-11-30T08:56:28.662Z,23.13
2022-11-30T08:57:31.619Z,23.80
2022-11-30T08:58:35.453Z,21.92
2022-11-30T08:59:37.115Z,22.60
2022-11-30T09:00:38.642Z,20.92
2022-11-30T09:01:40.194Z,22.45
2022-11-30T09:02:41.836Z,21.63
2022-11-30T09:03:44.718Z,19.35
2022-11-30T09:04:47.655Z,16.73
2022-11-30T09:05:49.205Z,13.68
2022-11-30T09:06:50.716Z,17.25
2022-11-30T09:07:52.297Z,18.13
2022-11-30T09:08:55.899Z,22.38
2022-11-30T09:09:57.394Z,16.45
2022-11-30T09:10:58.915Z,19.90
2022-11-30T09:12:03.593Z,15.32
2022-11-30T09:13:06.454Z,19.55
2022-11-30T09:14:09.625Z,18.92
2022-11-30T09:15:11.264Z,16.40
2022-11-30T09:16:14.436Z,16.23
2022-11-30T09:17:16.006Z,18.95
2022-11-30T09:18:17.514Z,15.20
2022-11-30T09:19:19.301Z,16.63
2022-11-30T09:20:20.960Z,16.95
2022-11-30T09:21:24.522Z,9.82
2022-11-30T09:22:26.776Z,12.70
2022-11-30T09:23:28.840Z,12.13
2022-11-30T09:24:30.369Z,13.45
2022-11-30T09:25:31.891Z,14.48
2022-11-30T09:26:33.412Z,13.48
2022-11-30T09:27:34.953Z,16.02
2022-11-30T09:28:38.956Z,11.90
2022-11-30T09:29:40.594Z,9.10
2022-11-30T09:30:42.209Z,15.15
2022-11-30T09:31:43.728Z,13.95
2022-11-30T09:32:45.240Z,12.88
2022-11-30T09:33:46.881Z,15.35
2022-11-30T09:34:50.600Z,13.95
2022-11-30T09:35:56.609Z,12.35
2022-11-30T09:36:58.373Z,17.02
2022-11-30T09:38:09.053Z,15.38
2022-11-30T09:39:11.754Z,10.00
2022-11-30T09:40:15.042Z,17.00
2022-11-30T09:41:40.721Z,13.15
2022-11-30T09:42:51.544Z,11.68
2022-11-30T09:44:02.866Z,11.80
2022-11-30T09:45:11.309Z,9.52
2022-11-30T09:46:13.412Z,13.00
2022-11-30T09:47:35.806Z,12.55
2022-11-30T09:48:51.290Z,11.80
2022-11-30T09:49:53.711Z,12.82
2022-11-30T09:51:00.346Z,10.05
2022-11-30T09:52:04.133Z,11.20
2022-11-30T09:53:10.451Z,11.65
2022-11-30T09:54:14.981Z,9.13
2022-11-30T09:55:24.816Z,13.63
2022-11-30T09:56:30.668Z,13.77
2022-11-30T09:57:46.854Z,11.30
2022-11-30T09:58:52.947Z,15.68
2022-11-30T09:59:57.865Z,9.25
2022-11-30T10:01:02.483Z,13.05
2022-11-30T10:02:15.831Z,12.48
2022-11-30T10:03:21.857Z,17.70
2022-11-30T10:04:25.526Z,14.23
2022-11-30T10:05:38.120Z,14.23
2022-11-30T10:06:49.553Z,15.70
2022-11-30T10:09:40.114Z,14.23
2022-11-30T10:10:44.887Z,17.33
2022-11-30T10:11:59.657Z,14.48
2022-11-30T10:13:22.572Z,16.00
2022-11-30T10:14:37.041Z,16.60
2022-11-30T10:15:51.998Z,17.73
2022-11-30T10:17:00.783Z,12.25
2022-11-30T10:18:12.213Z,17.27
2022-11-30T10:20:37.601Z,13.90
2022-11-30T10:21:54.701Z,12.35
2022-11-30T10:23:10.431Z,9.73
2022-11-30T10:24:25.062Z,12.27
2022-11-30T10:25:37.523Z,14.30
2022-11-30T10:26:43.659Z,17.52
2022-11-30T10:27:50.662Z,17.55
2022-11-30T10:28:53.691Z,14.73
2022-11-30T10:29:57.105Z,16.25
2022-11-30T10:31:03.034Z,17.27
2022-11-30T10:32:13.658Z,17.15
2022-11-30T10:33:18.379Z,16.45
2022-11-30T10:34:22.223Z,17.23
2022-11-30T10:35:34.295Z,18.27
2022-11-30T10:36:39.437Z,18.38
2022-11-30T10:37:42.056Z,15.27
2022-11-30T10:38:48.425Z,16.17
2022-11-30T10:39:58.824Z,15.98
2022-11-30T10:41:06.349Z,16.67
2022-11-30T10:42:12.723Z,14.82
2022-11-30T10:43:20.617Z,16.25
2022-11-30T10:44:26.426Z,15.05
2022-11-30T10:45:30.329Z,16.60
2022-11-30T10:46:34.897Z,15.38
2022-11-30T10:47:41.484Z,17.40
2022-11-30T10:48:48.435Z,14.13
2022-11-30T10:49:51.720Z,14.23
2022-11-30T10:50:53.749Z,12.50
2022-11-30T10:52:01.589Z,13.60
2022-11-30T10:53:03.316Z,15.70
2022-11-30T10:54:14.553Z,13.80
2022-11-30T10:55:20.311Z,12.32
2022-11-30T10:56:21.847Z,17.45
2022-11-30T10:57:28.586Z,14.00
2022-11-30T10:58:32.938Z,13.73
2022-11-30T10:59:41.777Z,18.25
2022-11-30T11:00:50.315Z,13.15
2022-11-30T11:01:53.319Z,15.85
2022-11-30T11:02:55.067Z,16.83
2022-11-30T11:04:08.710Z,15.52
2022-11-30T11:05:21.895Z,15.07
2022-11-30T11:06:24.900Z,18.63
2022-11-30T11:07:26.661Z,15.32
2022-11-30T11:08:28.650Z,15.30
2022-11-30T11:09:33.858Z,15.25
2022-11-30T11:10:42.644Z,16.63
2022-11-30T11:11:44.196Z,17.70
2022-11-30T11:12:50.647Z,17.00
2022-11-30T11:13:52.207Z,19.10
2022-11-30T11:15:08.551Z,19.48
2022-11-30T11:16:11.586Z,18.00
2022-11-30T11:17:23.896Z,17.83
2022-11-30T11:18:27.154Z,18.17
2022-11-30T11:19:35.179Z,19.48
2022-11-30T11:20:37.998Z,17.70
2022-11-30T11:21:44.959Z,17.50
2022-11-30T11:22:46.548Z,17.58
2022-11-30T11:23:51.328Z,17.63
2022-11-30T11:24:55.958Z,18.02
2022-11-30T11:25:57.547Z,19.65
2022-11-30T11:26:59.199Z,17.77
2022-11-30T11:28:06.698Z,19.20
2022-11-30T11:29:24.441Z,18.92
2022-11-30T11:30:30.427Z,18.88
2022-11-30T11:31:36.728Z,21.10
2022-11-30T11:32:39.721Z,19.73
2022-11-30T11:33:50.629Z,19.70
2022-11-30T11:34:52.856Z,18.13
2022-11-30T11:35:55.718Z,19.30
2022-11-30T11:37:06.362Z,19.67
2022-11-30T11:38:23.136Z,19.48
2022-11-30T11:39:25.882Z,16.77
2022-11-30T11:40:27.609Z,17.95
2022-11-30T11:41:31.729Z,19.40
2022-11-30T11:42:36.452Z,17.52
2022-11-30T11:43:58.013Z,18.77
2022-11-30T11:45:01.721Z,18.85
2022-11-30T11:46:12.922Z,19.27
2022-11-30T11:47:24.428Z,18.95
2022-11-30T11:49:40.706Z,16.40
2022-11-30T11:51:06.664Z,16.63
2022-11-30T11:52:16.670Z,17.52
2022-11-30T11:53:20.970Z,17.42
2022-11-30T11:54:24.584Z,19.92
2022-11-30T11:55:26.205Z,18.30
2022-11-30T11:56:29.920Z,18.17
2022-11-30T11:57:40.579Z,18.55
2022-11-30T11:58:47.301Z,18.33
2022-11-30T11:59:54.929Z,19.73
2022-11-30T12:01:23.773Z,17.95
2022-11-30T12:02:29.391Z,17.40
2022-11-30T12:03:37.719Z,14.18
2022-11-30T12:04:45.634Z,16.38
2022-11-30T12:05:51.612Z,11.95
2022-11-30T12:06:56.250Z,15.88
2022-11-30T12:08:07.392Z,12.68
2022-11-30T12:09:15.422Z,10.93
2022-11-30T12:11:49.087Z,14.38
2022-11-30T12:12:54.708Z,12.35
2022-11-30T12:13:56.545Z,12.90
2022-11-30T12:14:58.426Z,15.05
2022-11-30T12:16:07.942Z,12.93
2022-11-30T12:17:26.170Z,16.83
2022-11-30T12:18:33.882Z,14.85
2022-11-30T12:19:43.126Z,15.88
2022-11-30T12:20:54.135Z,17.02
2022-11-30T12:22:04.109Z,17.15
2022-11-30T12:23:20.631Z,15.80
2022-11-30T12:24:53.703Z,14.20
2022-11-30T12:26:01.960Z,17.88
2022-11-30T12:27:11.638Z,11.50
2022-11-30T12:28:23.955Z,10.85
2022-11-30T12:29:34.343Z,14.85
2022-11-30T12:30:43.042Z,11.82
2022-11-30T12:31:59.951Z,12.73
2022-11-30T12:33:11.859Z,10.68
2022-11-30T12:34:19.916Z,12.02
2022-11-30T12:35:29.735Z,13.82
2022-11-30T12:36:46.095Z,9.25
2022-11-30T12:38:02.760Z,17.55
2022-11-30T12:39:08.326Z,14.75
2022-11-30T12:40:24.948Z,16.08
2022-11-30T12:41:36.320Z,16.52
2022-11-30T12:42:43.926Z,14.25
2022-11-30T12:43:52.796Z,17.67
2022-11-30T12:45:00.081Z,19.13
2022-11-30T12:46:09.819Z,20.83
2022-11-30T12:47:24.921Z,17.77
2022-11-30T12:48:34.136Z,17.90
2022-11-30T12:49:50.234Z,13.57
2022-11-30T12:51:04.643Z,8.85
2022-11-30T12:52:25.004Z,13.82
2022-11-30T12:53:31.915Z,16.38
2022-11-30T12:54:41.792Z,13.32
2022-11-30T12:55:48.190Z,15.95
2022-11-30T12:56:55.327Z,12.30
2022-11-30T12:58:02.675Z,13.38
2022-11-30T12:59:15.132Z,11.52
2022-11-30T13:00:20.538Z,17.60
2022-11-30T13:01:38.810Z,15.20
2022-11-30T13:03:04.470Z,16.10
2022-11-30T13:04:14.178Z,14.15
2022-11-30T13:05:19.537Z,13.15
2022-11-30T13:06:26.847Z,10.27
2022-11-30T13:07:34.631Z,9.45
2022-11-30T13:08:49.095Z,10.13
2022-11-30T13:09:54.654Z,12.43
2022-11-30T13:10:59.826Z,11.85
2022-11-30T13:12:06.610Z,17.20
2022-11-30T13:13:13.443Z,16.42
2022-11-30T13:14:20.399Z,17.00
2022-11-30T13:15:25.211Z,16.63
2022-11-30T13:16:29.598Z,11.75
2022-11-30T13:17:31.460Z,11.73
2022-11-30T13:18:33.465Z,13.10
2022-11-30T13:19:47.723Z,11.75
2022-11-30T13:20:55.449Z,11.55
2022-11-30T13:22:02.099Z,14.15
2022-11-30T13:23:09.917Z,15.80
2022-11-30T13:24:15.224Z,10.55
2022-11-30T13:25:59.401Z,13.88
2022-11-30T13:26:52.043Z,14.07
2022-11-30T13:28:02.758Z,12.95
2022-11-30T13:29:21.287Z,16.63
2022-11-30T13:30:32.129Z,14.00
2022-11-30T13:31:39.640Z,10.52
2022-11-30T13:32:58.341Z,13.30
2022-11-30T13:34:00.559Z,13.50
2022-11-30T13:35:35.311Z,9.88
2022-11-30T13:36:39.740Z,11.88
2022-11-30T13:37:41.527Z,12.32
2022-11-30T13:38:44.440Z,13.65
2022-11-30T13:39:49.326Z,15.48
2022-11-30T13:40:59.355Z,14.65
2022-11-30T13:42:37.446Z,15.45
2022-11-30T13:43:45.727Z,12.50
2022-11-30T13:44:47.637Z,12.82
2022-11-30T13:45:50.949Z,14.35
2022-11-30T13:46:53.394Z,14.65
2022-11-30T13:47:57.147Z,15.73
2022-11-30T13:49:18.420Z,10.85
2022-11-30T13:50:25.260Z,13.50
2022-11-30T13:51:38.008Z,14.57
2022-11-30T13:53:06.605Z,16.02
2022-11-30T13:54:40.825Z,13.55
2022-11-30T13:55:58.353Z,15.82
2022-11-30T13:56:59.930Z,11.65
2022-11-30T13:58:09.910Z,13.77
2022-11-30T13:59:54.302Z,15.32
2022-11-30T14:01:24.281Z,13.20